McNeill, Mississippi
Current Conditions -  °F | °C
As of 3:15 AM on Thursday 23 Oct 2014 (Local Time) from KBXA Reporting Station
NA  
Wind Chill: 47°   Ceiling: NA
Heat Index: 47°   Visibility: 10mi
Dew Point: 44°   Wind: 3mph
Humidity: 90%   Direction: 10°N
Pressure: 30.1"   Gusts: NA
Location:  30.67°N, 89.64°W
Report Text: KBXA 230815Z AUTO 01003KT 10SM 08/07 A3010 RMK AO2 T00840068
Loading
Personal Weather Stations






























Interactive Weather Map
Tropical Storm Tracking
New forecast layout! Learn more

10-Day Weather Forecast

Advertisements
Track Severe Weather on mobile